Tiempo atmosférico en la estación meteorológica de Puerto El Pico, Ávila (1285 m.)



Fecha
DESCASC
Temp. máxima en grados centígrados (hora)
DESCASC
Temp. mínima en grados centígrados (hora)
DESCASC
Temp. media en grados centígrados
DESCASC
Racha de viento máxima en m/sg (hora)
DESCASC
Velocidad máxima media en intervalos de 10 minutos(hora)
DESCASC
Precipitaciones diarias en mm
DESCASC
Precipitaciones de 00:00 a 06:00 en mm
DESCASC
Precipitaciones de 06:00 a 12:00 en mm
DESCASC
Precipitaciones de 12:00 a 18:00 en mm
DESCASC
Precipitaciones de 18:00 a 24:00 en mm
DESCASC
24-09-2020 19.1 (17:00) 8.3 (21:40) 13.7 9.17 (23:50) 3.89 (23:50) 0.8 0 0.6 0.2 0
23-09-2020 17.8 (18:10) 6.7 (00:00) 12.2 10.83 (13:00) 5.83 (13:10) 1 0.2 0 0 0.8
22-09-2020 19.1 (15:50) 1.4 (00:00) 10.3 9.72 (16:30) 5.83 (14:40) 0 0 0 0 0
21-09-2020 18.6 (17:20) 3.6 (00:00) 11.1 8.61 (15:10) 5 (15:10) 0 0 0 0 0
20-09-2020 16.7 (18:50) 6.8 (00:00) 11.8 10.83 (14:20) 5.83 (14:20) 1.6 0.2 1.2 0.2 0
19-09-2020 13.1 (18:00) 10.5 (00:00) 11.8 17.22 (03:20) 8.61 (03:20) 66 40.2 13.4 12.4 0
18-09-2020 15.6 (15:40) 9.2 (00:00) 12.4 14.72 (03:40) 5.83 (11:10) 104.6 43.2 12.6 13.8 35
17-09-2020 18.8 (13:30) 12.2 (00:00) 15.5 11.94 (13:40) 7.22 (13:40) 6.6 0.6 0 0.2 5.8
16-09-2020 26.2 (17:20) 4.8 (00:00) 15.5 8.33 (16:50) 4.17 (16:30) 1.6 0 0 0 1.6
15-09-2020 23.5 (17:40) 7.3 (00:00) 15.4 8.89 (16:30) 4.44 (14:40) 0.2 0 0.2 0 0
14-09-2020 26.1 (17:10) 11.4 (00:00) 18.8 8.89 (21:20) 4.44 (16:40) 2.6 0 0 0 2.6
13-09-2020 27.2 (17:00) 6.3 (00:00) 16.8 7.22 (13:20) 3.89 (13:00) 0 0 0 0 0
12-09-2020 28.6 (16:30) 4.9 (00:00) 16.8 8.06 (16:10) 4.17 (14:10) 0 0 0 0 0
11-09-2020 27.7 (17:50) 3.2 (00:00) 15.5 8.61 (15:20) 4.44 (14:30) 0 0 0 0 0
10-09-2020 27 (17:10) 2.8 (00:00) 14.9 7.78 (13:20) 4.17 (13:20) 0 0 0 0 0
09-09-2020 25.3 (16:30) 0.6 (00:00) 12.9 7.78 (17:00) 4.17 (17:30) 0 0 0 0 0
08-09-2020 22.4 (18:10) -0.9 (-00:0) 10.7 7.5 (15:10) 3.89 (15:50) 0 0 0 0 0
07-09-2020 25 (16:40) 5.5 (08:10) 15.3 8.06 (13:50) 5.28 (19:00) 0 0 0 0 0
06-09-2020 29.2 (16:20) 5.6 (00:00) 17.4 8.33 (16:30) 4.72 (20:00) 0 0 0 0 0
05-09-2020 29.2 (17:50) 4.8 (00:00) 17 8.89 (15:40) 4.17 (14:40) 0 0 0 0 0
04-09-2020 28.2 (17:20) 3.7 (00:00) 16 7.78 (18:00) 4.44 (18:00) 0 0 0 0 0
03-09-2020 27.5 (18:10) 2.4 (00:00) 15 8.89 (14:10) 4.72 (14:00) 0 0 0 0 0
02-09-2020 26.1 (16:30) 1.1 (00:00) 13.6 7.5 (17:10) 3.89 (17:00) 0 0 0 0 0
01-09-2020 24.3 (17:20) 3.8 (00:00) 14 8.61 (15:50) 4.72 (15:50) 0 0 0 0 0
31-08-2020 21.2 (17:30) -3.1 (-00:0) 9.1 7.5 (16:20) 4.72 (15:50) 0 0 0 0 0
30-08-2020 20.1 (17:50) -0.7 (-00:0) 9.7 7.78 (14:50) 4.17 (19:00) 0 0 0 0 0
29-08-2020 17.1 (17:50) 5.9 (00:00) 11.5 11.11 (13:10) 7.5 (16:20) 0 0 0 0 0
28-08-2020 27.6 (15:40) 12 (00:00) 19.8 10.83 (18:20) 5.83 (19:00) 0 0 0 0 0

Gráficas

Temp. máximas Temp. mínimas Temp. medias Precipitaciones Rachas de viento máximas Velocidades máximas media en intervalos de 10 minutos

Datos horarios

Fecha y hora oficial Temperatura (ºC) Velocidad del viento (km/h) Dirección del viento Racha (km/h) Dirección de racha Precipitación (mm) Presión (hPa) Tendencia (hPa) Humedad (%)
2020-09-26 23:00:00 10.6 5 Norte 30 Noroeste 0 -- -- 82
2020-09-26 22:00:00 11.1 10 Norte 29 Norte 0 -- -- 79
2020-09-26 21:00:00 11.4 9 Norte 24 Norte 0 -- -- 77
2020-09-26 20:00:00 11.7 9 Norte 31 Norte 0 -- -- 70
2020-09-26 19:00:00 14.8 6 Noroeste 33 Norte 0 -- -- 51
2020-09-26 18:00:00 14.9 17 Norte 29 Norte 0 -- -- 51
2020-09-26 17:00:00 16.8 14 Norte 30 Norte 0 -- -- 49
2020-09-26 16:00:00 16.8 12 Norte 28 Norte 0 -- -- 46
2020-09-26 15:00:00 17.3 9 Noroeste 22 Norte 0 -- -- 40
2020-09-26 14:00:00 16.7 7 Noroeste 19 Oeste 0 -- -- 41
2020-09-26 13:00:00 14.8 7 Norte 23 Norte 0 -- -- 50
2020-09-26 12:00:00 13.5 9 Norte 24 Nordeste 0 -- -- 53
2020-09-26 11:00:00 11.7 14 Nordeste 20 Nordeste 0 -- -- 54
2020-09-26 10:00:00 7.1 4 Norte 8 Norte 0 -- -- 77
2020-09-26 09:00:00 1.7 0 Calma 12 Nordeste 0 -- -- 94
2020-09-26 08:00:00 0.7 2 Este 6 Norte 0 -- -- 99
2020-09-26 07:00:00 0.7 3 Nordeste 8 Este 0 -- -- 95
2020-09-26 06:00:00 0.6 0 Calma 5 Sudoeste 0 -- -- 93
2020-09-26 05:00:00 2.2 0 Calma 12 Norte 0 -- -- 90
2020-09-26 04:00:00 4.5 6 Norte 17 Norte 0 -- -- 80
2020-09-26 03:00:00 5.3 12 Nordeste 22 Norte 0 -- -- 77
2020-09-26 02:00:00 6.1 15 Norte 23 Norte 0 -- -- 73
2020-09-26 01:00:00 6.2 8 Norte 27 Nordeste 0 -- -- 74
2020-09-26 00:00:00 7.6 14 Norte 45 Norte 0 -- -- 67
2020-09-25 23:00:00 8.2 22 Norte 45 Norte 0 -- -- 64
2020-09-25 22:00:00 8.4 28 Norte 41 Norte 0 -- -- 63
2020-09-25 21:00:00 8.3 24 Norte 33 Norte 0 -- -- 66
2020-09-25 20:00:00 9.6 24 Norte 38 Norte 0 -- -- 61
2020-09-25 19:00:00 12 19 Norte 38 Norte 0 -- -- 52
2020-09-25 18:00:00 12.1 23 Norte 39 Norte 0 -- -- 51
2020-09-25 17:00:00 13.2 22 Norte 38 Norte 0 -- -- 51
2020-09-25 16:00:00 13.7 11 Norte 40 Norte 0 -- -- 48
2020-09-25 15:00:00 12.9 17 Norte 41 Norte 0 -- -- 48
2020-09-25 14:00:00 11.8 10 Noroeste 32 Noroeste 0 -- -- 53
2020-09-25 13:00:00 10.8 18 Norte 35 Norte 0 -- -- 60
2020-09-25 12:00:00 9.2 8 Noroeste 33 Norte 0 -- -- 62
2020-09-25 11:00:00 7.3 17 Norte 36 Norte 0 -- -- 68
2020-09-25 10:00:00 6.2 13 Nordeste 47 Norte 0 -- -- 69
2020-09-25 09:00:00 6.6 15 Norte 37 Nordeste 0 -- -- 75
2020-09-25 08:00:00 6.6 16 Norte 31 Norte 0 -- -- 75
2020-09-25 07:00:00 7.2 8 Nordeste 21 Nordeste 0 -- -- 72
2020-09-25 06:00:00 7.5 11 Nordeste 26 Nordeste 0 -- -- 76
2020-09-25 05:00:00 7.5 13 Nordeste 35 Noroeste 0 -- -- 76
2020-09-25 04:00:00 8 9 Norte 31 Norte 0 -- -- 78
2020-09-25 03:00:00 7.7 10 Nordeste 24 Norte 0 -- -- 77
2020-09-25 02:00:00 8.3 13 Norte 27 Nordeste 0 -- -- 75
2020-09-25 01:00:00 8.5 12 Nordeste 41 Norte 0 -- -- 76
2020-09-25 00:00:00 8.8 13 Nordeste 33 Norte 0 -- -- 75
2020-09-24 23:00:00 9.5 10 Norte 28 Norte 0 -- -- 73
2020-09-24 22:00:00 10 10 Norte 23 Norte 0 -- -- 72
2020-09-24 21:00:00 9.4 5 Sudoeste 11 Sur 0 -- -- 84
2020-09-24 20:00:00 12.9 5 Oeste 22 Nordeste 0 -- -- 71
2020-09-24 19:00:00 16.3 9 Norte 25 Norte 0 -- -- 54
2020-09-24 18:00:00 18.7 9 Sudoeste 23 Sudoeste 0.2 -- -- 50
2020-09-24 17:00:00 19.1 8 Noroeste 31 Oeste 0 -- -- 57
2020-09-24 16:00:00 18.3 10 Oeste 28 Noroeste 0 -- -- 51
2020-09-24 15:00:00 16.5 10 Sudoeste 25 Oeste 0 -- -- 79
2020-09-24 14:00:00 14.8 9 Sudoeste 24 Sur 0 -- -- 96
2020-09-24 13:00:00 13.2 14 Sur 23 Sudeste 0 -- -- 99
2020-09-24 12:00:00 12.2 10 Sur 23 Sudoeste 0.2 -- -- 100
2020-09-24 11:00:00 12.4 9 Sur 19 Sudoeste 0 -- -- 100
2020-09-24 10:00:00 12.8 9 Sur 15 Sur 0.2 -- -- 99
2020-09-24 09:00:00 12.6 6 Sudoeste 13 Sur 0 -- -- 100
2020-09-24 08:00:00 12.6 5 Sudoeste 14 Sur 0.2 -- -- 99
2020-09-24 07:00:00 12.5 6 Sur 14 Sur 0 -- -- 99
2020-09-24 06:00:00 12.2 0 Calma 9 Sudoeste 0 -- -- 98
2020-09-24 05:00:00 12.4 2 Sudoeste 13 Sur 0 -- -- 98
2020-09-24 04:00:00 12.4 8 Sur 16 Sur 0 -- -- 97
2020-09-24 03:00:00 12.6 8 Sur 17 Sudoeste 0 -- -- 98
2020-09-24 02:00:00 12.5 5 Sur 17 Sudoeste 0 -- -- 99
2020-09-24 01:00:00 11.9 6 Sur 10 Sudeste 0 -- -- 99
2020-09-24 00:00:00 11.4 0 Calma 6 Sur 0 -- -- 98
2020-09-23 23:00:00 12.1 4 Sur 6 Sur 0.8 -- -- 97
2020-09-23 22:00:00 13.2 2 Sur 15 Sur 0 -- -- 93
2020-09-23 21:00:00 13 7 Sur 25 Sudoeste 0 -- -- 93
2020-09-23 20:00:00 13.8 14 Sur 26 Sur 0 -- -- 91
2020-09-23 19:00:00 16.1 15 Sur 30 Sur 0 -- -- 82
2020-09-23 18:00:00 17.6 11 Sudoeste 27 Sur 0 -- -- 75
2020-09-23 17:00:00 15.2 17 Sur 30 Sur 0 -- -- 84
2020-09-23 16:00:00 15.8 17 Sur 36 Sur 0 -- -- 78
2020-09-23 15:00:00 14.5 16 Sur 32 Sudoeste 0 -- -- 84
2020-09-23 14:00:00 14.5 19 Sur 34 Sur 0 -- -- 79
2020-09-23 13:00:00 15.5 20 Sur 39 Sudoeste 0 -- -- 75
2020-09-23 12:00:00 15.8 17 Sur 34 Sudeste 0 -- -- 74
2020-09-23 11:00:00 14.2 16 Sur 26 Sur 0 -- -- 77
2020-09-23 10:00:00 12.5 12 Sur 23 Sur 0 -- -- 88
2020-09-23 09:00:00 11.8 8 Sur 21 Sudoeste 0 -- -- 96
2020-09-23 08:00:00 11.6 9 Sudoeste 22 Oeste 0 -- -- 98
2020-09-23 07:00:00 11.7 10 Sur 23 Sur 0 -- -- 96
2020-09-23 06:00:00 11.7 5 Sudoeste 14 Sudoeste 0.2 -- -- 97
2020-09-23 05:00:00 9.1 3 Nordeste 6 Nordeste 0 -- -- 99
2020-09-23 04:00:00 8.5 2 Oeste 5 Sudoeste 0 -- -- 99
2020-09-23 03:00:00 8.1 0 Calma 5 Nordeste 0 -- -- 99
2020-09-23 02:00:00 7.6 0 Calma 6 Sur 0 -- -- 100
2020-09-23 01:00:00 6.7 0 Calma 6 Sudoeste 0 -- -- 99
2020-09-23 00:00:00 7.3 3 Sur 9 Sudeste 0 -- -- 98
2020-09-22 23:00:00 8 6 Sur 9 Sudeste 0 -- -- 98
2020-09-22 22:00:00 9.3 2 Sudeste 11 Sur 0 -- -- 92
2020-09-22 21:00:00 12.1 7 Sur 14 Sur 0 -- -- 85
2020-09-22 20:00:00 14.6 12 Sur 28 Sudoeste 0 -- -- 77
2020-09-22 19:00:00 16.9 13 Sur 30 Sur 0 -- -- 72
2020-09-22 18:00:00 17.5 14 Sur 32 Sur 0 -- -- 67
2020-09-22 17:00:00 17.5 18 Sur 35 Sudoeste 0 -- -- 64
2020-09-22 16:00:00 19.1 18 Sur 32 Sudoeste 0 -- -- 59
2020-09-22 15:00:00 18.8 16 Sur 32 Sudoeste 0 -- -- 60
2020-09-22 14:00:00 17.8 16 Sur 29 Sudoeste 0 -- -- 60
2020-09-22 13:00:00 16.3 17 Sur 28 Sudoeste 0 -- -- 64
2020-09-22 12:00:00 15.7 15 Sur 25 Sur 0 -- -- 63
2020-09-22 11:00:00 15 0 Calma 4 Nordeste 0 -- -- 75
2020-09-22 10:00:00 8.5 0 Calma 4 Sudeste 0 -- -- 100
2020-09-22 09:00:00 3.1 0 Calma 4 Sudoeste 0 -- -- 100
2020-09-22 08:00:00 1.8 0 Calma 5 Sudoeste 0 -- -- 100
2020-09-22 07:00:00 2 0 Calma 4 Sur 0 -- -- 100
2020-09-22 06:00:00 2.5 0 Calma 4 Sudeste 0 -- -- 100
2020-09-22 05:00:00 3.1 0 Calma 4 Sudoeste 0 -- -- 100
2020-09-22 04:00:00 3.7 0 Calma 3 Sur 0 -- -- 100
2020-09-22 03:00:00 3.9 0 Calma 5 Sudoeste 0 -- -- 99
2020-09-22 02:00:00 4.3 0 Calma 4 Sur 0 -- -- 99
2020-09-22 01:00:00 5.4 2 Sur 5 Sudeste 0 -- -- 98
2020-09-22 00:00:00 6.7 3 Sur 7 Sur 0 -- -- 96
2020-09-21 23:00:00 7.2 4 Sur 9 Sur 0 -- -- 95
2020-09-21 22:00:00 8.2 4 Sur 8 Sudeste 0 -- -- 94
2020-09-21 21:00:00 9.9 5 Sur 12 Sur 0 -- -- 92
2020-09-21 20:00:00 13.2 7 Sur 21 Sudoeste 0 -- -- 84
2020-09-21 19:00:00 16.5 14 Sur 29 Sudoeste 0 -- -- 72
2020-09-21 18:00:00 18 13 Sur 28 Sudoeste 0 -- -- 67
2020-09-21 17:00:00 18.3 13 Sur 31 Sur 0 -- -- 63
2020-09-21 16:00:00 18 15 Sur 31 Sur 0 -- -- 65
2020-09-21 15:00:00 17.1 16 Sur 28 Sudoeste 0 -- -- 69
2020-09-21 14:00:00 17 12 Sudoeste 22 Sudoeste 0 -- -- 66
2020-09-21 13:00:00 16.9 8 Sur 19 Sur 0 -- -- 69
2020-09-21 12:00:00 17.7 4 Sur 9 Sur 0 -- -- 59
2020-09-21 11:00:00 13.2 0 Calma 4 Nordeste 0 -- -- 91
2020-09-21 10:00:00 7.9 0 Calma 3 Sudoeste 0 -- -- 99
2020-09-21 09:00:00 4.1 0 Calma 4 Sur 0 -- -- 100
2020-09-21 08:00:00 5 2 Sur 8 Sur 0 -- -- 100
2020-09-21 07:00:00 4.8 3 Sur 4 Sur 0 -- -- 100
2020-09-21 06:00:00 3.6 0 Calma 6 Sur 0 -- -- 100
2020-09-21 05:00:00 4.6 4 Sur 5 Sudoeste 0 -- -- 100
2020-09-21 04:00:00 4.7 2 Sur 8 Sur 0 -- -- 99
2020-09-21 03:00:00 5.7 3 Sur 5 Sur 0 -- -- 100
2020-09-21 02:00:00 6.5 0 Calma 6 Sudoeste 0 -- -- 100
2020-09-21 01:00:00 7.5 4 Sur 9 Sur 0 -- -- 100
2020-09-21 00:00:00 6.8 2 Sur 9 Sudoeste 0 -- -- 99
2020-09-20 23:00:00 7.2 0 Calma 6 Sur 0 -- -- 98
2020-09-20 22:00:00 9.2 5 Sur 13 Sudoeste 0 -- -- 98
2020-09-20 21:00:00 9.7 5 Sur 10 Sudeste 0 -- -- 97
2020-09-20 20:00:00 12.5 3 Sudeste 17 Sudoeste 0 -- -- 87
2020-09-20 19:00:00 16.3 10 Sur 24 Sur 0 -- -- 82
2020-09-20 18:00:00 14.1 18 Sur 27 Sur 0 -- -- 94
2020-09-20 17:00:00 14.2 20 Sur 37 Sur 0 -- -- 93
2020-09-20 16:00:00 14.5 15 Sur 33 Sudeste 0 -- -- 92
2020-09-20 15:00:00 13.9 19 Sur 39 Sur 0 -- -- 97
2020-09-20 14:00:00 13 16 Sur 28 Sur 0 -- -- 99
2020-09-20 13:00:00 12.7 15 Sur 28 Sur 0.2 -- -- 99
2020-09-20 12:00:00 12.6 14 Sur 24 Sur 0.6 -- -- 99
2020-09-20 11:00:00 11.9 13 Sur 28 Sudoeste 0.2 -- -- 100
2020-09-20 10:00:00 11.7 13 Sur 30 Sudeste 0.2 -- -- 100
2020-09-20 09:00:00 11.6 13 Sur 24 Sur 0.2 -- -- 100
2020-09-20 08:00:00 11.2 9 Sur 25 Sur 0 -- -- 100
2020-09-20 07:00:00 11.4 10 Sur 24 Sur 0 -- -- 99
2020-09-20 06:00:00 11.4 10 Sur 27 Sudoeste 0 -- -- 97
2020-09-20 05:00:00 11.3 10 Sur 22 Sur 0 -- -- 98
2020-09-20 04:00:00 11.3 10 Sudoeste 21 Sudoeste 0 -- -- 98
2020-09-20 03:00:00 11.4 8 Sudoeste 16 Oeste 0 -- -- 97
2020-09-20 02:00:00 10.5 4 Sudoeste 9 Sudoeste 0 -- -- 98
2020-09-20 01:00:00 11.4 6 Sur 12 Sudoeste 0.2 -- -- 97
2020-09-20 00:00:00 11.8 2 Sur 14 Sudoeste 0 -- -- 93
2020-09-19 23:00:00 11.4 4 Sur 19 Sur 0 -- -- 95
2020-09-19 22:00:00 11.5 4 Sudoeste 14 Sur 0 -- -- 92
2020-09-19 21:00:00 11.5 9 Sur 15 Sudoeste 0 -- -- 88
2020-09-19 20:00:00 11.8 7 Sur 14 Sur 0 -- -- 89
2020-09-19 19:00:00 12 10 Sur 24 Sur 0 -- -- 87
2020-09-19 18:00:00 13.1 13 Sur 24 Sur 0 -- -- 85
2020-09-19 17:00:00 12.1 9 Sur 22 Sur 0.2 -- -- 97
2020-09-19 16:00:00 11.9 8 Sudoeste 27 Sudoeste 0.8 -- -- 98
2020-09-19 15:00:00 11.8 6 Sudoeste 19 Sudoeste 4.2 -- -- 99
2020-09-19 14:00:00 12.2 12 Sur 21 Sur 1.4 -- -- 98
2020-09-19 13:00:00 11.8 12 Sur 24 Sur 5.8 -- -- 99
2020-09-19 12:00:00 12.1 10 Sur 18 Sur 0.2 -- -- 98
2020-09-19 11:00:00 11.7 8 Sur 17 Sur 0 -- -- 99
2020-09-19 10:00:00 11.1 11 Sur 28 Sur 1.8 -- -- 100
2020-09-19 09:00:00 11 19 Sur 39 Sur 1.4 -- -- 100
2020-09-19 08:00:00 11 17 Sur 36 Oeste 2.6 -- -- 100
2020-09-19 07:00:00 10.9 22 Sur 50 Sudoeste 7.4 -- -- 100
2020-09-19 06:00:00 10.8 21 Sur 46 Sur 9.4 -- -- 100
2020-09-19 05:00:00 10.6 21 Sur 48 Sur 12 -- -- 100
2020-09-19 04:00:00 10.5 20 Sur 62 Sur 8.8 -- -- 100
2020-09-19 03:00:00 10.8 24 Sudoeste 50 Sudoeste 5.2 -- -- 100
2020-09-19 02:00:00 10.5 18 Sudoeste 53 Sur 0.4 -- -- 99
2020-09-19 01:00:00 10.6 22 Sur 46 Sudoeste 4.4 -- -- 99
2020-09-19 00:00:00 10.6 11 Sur 21 Sudoeste 6.2 -- -- 99
2020-09-18 23:00:00 9.9 5 Noroeste 22 Sudoeste 11.8 -- -- 98
2020-09-18 22:00:00 10 9 Sur 40 Sudoeste 9.8 -- -- 98
2020-09-18 21:00:00 10.1 11 Sur 28 Sur 7 -- -- 98
2020-09-18 20:00:00 10.8 6 Sudoeste 23 Sudoeste 0.2 -- -- 92
2020-09-18 19:00:00 13.8 10 Sur 17 Sur 0 -- -- 80
2020-09-18 18:00:00 10.3 4 Sudeste 34 Sur 5.8 -- -- 97
2020-09-18 17:00:00 11 15 Sur 37 Sur 8 -- -- 96
2020-09-18 16:00:00 14.5 9 Sur 26 Sur 0 -- -- 75
2020-09-18 15:00:00 15 14 Sur 31 Sur 0 -- -- 71
2020-09-18 14:00:00 15.2 17 Sur 37 Sudoeste 0 -- -- 72
2020-09-18 13:00:00 14.4 16 Sur 31 Sudoeste 0 -- -- 75
2020-09-18 12:00:00 14.3 18 Sur 35 Sur 0 -- -- 71
2020-09-18 11:00:00 13 18 Sur 31 Sur 0 -- -- 84
2020-09-18 10:00:00 10.8 9 Sur 22 Sur 0.2 -- -- 95
2020-09-18 09:00:00 10.7 8 Sur 30 Sudeste 2.6 -- -- 97
2020-09-18 08:00:00 11.2 9 Sur 28 Sudoeste 6.4 -- -- 99
2020-09-18 07:00:00 11.1 8 Sur 28 Sur 3.4 -- -- 98
2020-09-18 06:00:00 11 10 Sudoeste 32 Sur 0.8 -- -- 97
2020-09-18 05:00:00 10.4 7 Sur 20 Sudeste 3.2 -- -- 99
2020-09-18 04:00:00 9.7 10 Sur 53 Sudoeste 16.2 -- -- 99
2020-09-18 03:00:00 10.2 6 Este 42 Sudeste 20.6 -- -- 98
2020-09-18 02:00:00 13.3 10 Sudoeste 28 Sudoeste 0 -- -- 99
2020-09-18 01:00:00 13.1 14 Sudoeste 37 Sudoeste 2.4 -- -- 98
2020-09-18 00:00:00 12.8 10 Sudoeste 30 Sudoeste 1.6 -- -- 96
2020-09-17 23:00:00 12.6 5 Sudoeste 36 Sudoeste 2 -- -- 94
2020-09-17 22:00:00 14.6 11 Sudoeste 33 Sudoeste 2 -- -- 91
2020-09-17 21:00:00 17.5 20 Sudoeste 40 Sudoeste 0.2 -- -- 73
2020-09-17 20:00:00 17.4 10 Sur 32 Sur 0 -- -- 75
2020-09-17 19:00:00 16.9 11 Sur 24 Sur 0 -- -- 81
2020-09-17 18:00:00 16.2 6 Sur 20 Sudoeste 0 -- -- 86
2020-09-17 17:00:00 15.5 8 Sur 21 Oeste 0 -- -- 89
2020-09-17 16:00:00 15.2 9 Sudoeste 22 Oeste 0.2 -- -- 89
2020-09-17 15:00:00 15.6 14 Sur 31 Sur 0 -- -- 84
2020-09-17 14:00:00 17.8 20 Sur 43 Sur 0 -- -- 69
2020-09-17 13:00:00 18.1 23 Sur 42 Sur 0 -- -- 71
2020-09-17 12:00:00 16.5 12 Sur 26 Sur 0 -- -- 78
2020-09-17 11:00:00 14.4 6 Sudoeste 14 Sur 0 -- -- 87
2020-09-17 10:00:00 14.4 3 Sudeste 13 Sudoeste 0 -- -- 85
2020-09-17 09:00:00 13.5 6 Sur 16 Sudoeste 0 -- -- 89
2020-09-17 08:00:00 12.9 4 Nordeste 17 Sur 0 -- -- 93
2020-09-17 07:00:00 13.2 5 Sur 18 Sudoeste 0 -- -- 92
2020-09-17 06:00:00 13.4 8 Sur 21 Sudoeste 0.2 -- -- 89
2020-09-17 05:00:00 13.8 13 Sur 32 Sudeste 0.4 -- -- 85
2020-09-17 04:00:00 15 10 Sur 24 Sudeste 0 -- -- 67
2020-09-17 03:00:00 12.6 5 Sur 14 Sudeste 0 -- -- 95
2020-09-17 02:00:00 12.3 3 Sur 17 Norte 0 -- -- 93
2020-09-17 01:00:00 12.7 8 Norte 15 Noroeste 0 -- -- 93
2020-09-17 00:00:00 13.7 9 Nordeste 20 Sudeste 1.6 -- -- 86
2020-09-16 23:00:00 18 4 Norte 15 Norte 0 -- -- 49
2020-09-16 22:00:00 18.9 8 Norte 16 Sudeste 0 -- -- 51
2020-09-16 21:00:00 18.6 7 Sur 11 Sur 0 -- -- 51
2020-09-16 20:00:00 20.6 5 Sudeste 13 Sudoeste 0 -- -- 46
2020-09-16 19:00:00 22.8 7 Sur 18 Sur 0 -- -- 38
2020-09-16 18:00:00 23.6 11 Sur 27 Sur 0 -- -- 35
2020-09-16 17:00:00 24.6 13 Sudoeste 30 Sudoeste 0 -- -- 34
2020-09-16 16:00:00 23.8 12 Sudoeste 29 Sur 0 -- -- 40
2020-09-16 15:00:00 24 12 Sudoeste 27 Sudoeste 0 -- -- 42
2020-09-16 14:00:00 22.8 14 Sudoeste 27 Sur 0 -- -- 44
2020-09-16 13:00:00 22.1 13 Sudoeste 24 Sudoeste 0 -- -- 47
2020-09-16 12:00:00 21.2 7 Sudoeste 12 Sudoeste 0 -- -- 50
2020-09-16 11:00:00 17.1 2 Norte 5 Norte 0 -- -- 70
2020-09-16 10:00:00 13.3 0 Calma 4 Sur 0 -- -- 93
2020-09-16 09:00:00 5.7 2 Sur 4 Sudeste 0 -- -- 100
2020-09-16 08:00:00 4.9 0 Calma 5 Sur 0 -- -- 100
2020-09-16 07:00:00 5.1 0 Calma 6 Sudeste 0 -- -- 100
2020-09-16 06:00:00 5.4 0 Calma 5 Sur 0 -- -- 97
2020-09-16 05:00:00 5.6 0 Calma 5 Sudoeste 0 -- -- 98
2020-09-16 04:00:00 6.1 0 Calma 4 Sur 0 -- -- 98
2020-09-16 03:00:00 7 3 Sur 7 Sudoeste 0 -- -- 98
2020-09-16 02:00:00 7.6 3 Sur 8 Sudoeste 0 -- -- 98
2020-09-16 01:00:00 7.9 2 Este 5 Sur 0 -- -- 96
2020-09-16 00:00:00 8.7 3 Sur 6 Sudeste 0 -- -- 94
2020-09-15 23:00:00 9.6 3 Sur 5 Sur 0 -- -- 89
2020-09-15 22:00:00 11.3 3 Sur 8 Sur 0 -- -- 82
2020-09-15 21:00:00 13.5 4 Sur 12 Sudoeste 0 -- -- 77
2020-09-15 20:00:00 18.4 0 Calma 17 Sudoeste 0 -- -- 61
2020-09-15 19:00:00 22.6 9 Sudoeste 21 Sudoeste 0 -- -- 45
2020-09-15 18:00:00 23 13 Sur 28 Sudoeste 0 -- -- 42
2020-09-15 17:00:00 23.2 15 Sur 32 Sudoeste 0 -- -- 41
2020-09-15 16:00:00 21.6 13 Sur 30 Sudoeste 0 -- -- 53
2020-09-15 15:00:00 21.1 14 Sudoeste 31 Sudoeste 0 -- -- 53
2020-09-15 14:00:00 20.6 12 Sur 30 Sudoeste 0 -- -- 57
2020-09-15 13:00:00 18.3 12 Sur 22 Sudoeste 0 -- -- 70
2020-09-15 12:00:00 19.2 9 Sudoeste 18 Sur 0 -- -- 71
2020-09-15 11:00:00 18.1 3 Noroeste 7 Sudeste 0 -- -- 77
2020-09-15 10:00:00 12.3 3 Norte 6 Norte 0 -- -- 96
2020-09-15 09:00:00 9.3 3 Sur 6 Norte 0 -- -- 100
2020-09-15 08:00:00 7.3 0 Calma 5 Sudoeste 0 -- -- 99
2020-09-15 07:00:00 8.4 0 Calma 4 Sudeste 0.2 -- -- 99
2020-09-15 06:00:00 8.2 2 Sur 3 Sudoeste 0 -- -- 99
2020-09-15 05:00:00 8.4 0 Calma 8 Sudoeste 0 -- -- 99
2020-09-15 04:00:00 8.9 0 Calma 7 Sudoeste 0 -- -- 99
2020-09-15 03:00:00 10.1 3 Sudoeste 6 Sudoeste 0 -- -- 99
2020-09-15 02:00:00 10.2 0 Calma 6 Sudoeste 0 -- -- 98
2020-09-15 01:00:00 12 0 Calma 6 Sudoeste 0 -- -- 97
2020-09-15 00:00:00 12.5 2 Nordeste 6 Norte 0 -- -- 96
2020-09-14 23:00:00 12.9 4 Sudoeste 8 Este 0.2 -- -- 96
2020-09-14 22:00:00 13.2 9 Norte 32 Sudoeste 2.4 -- -- 88
2020-09-14 21:00:00 20.7 5 Sudeste 12 Sudeste 0 -- -- 47
2020-09-14 20:00:00 21.6 3 Sur 22 Sudoeste 0 -- -- 45
2020-09-14 19:00:00 23.9 6 Sur 25 Sudoeste 0 -- -- 40
2020-09-14 18:00:00 24.5 10 Sudoeste 32 Sudoeste 0 -- -- 38
2020-09-14 17:00:00 25.5 9 Sur 29 Sudoeste 0 -- -- 37
2020-09-14 16:00:00 24.9 15 Sudoeste 29 Sudeste 0 -- -- 38
2020-09-14 15:00:00 22.5 5 Sur 22 Sur 0 -- -- 43
2020-09-14 14:00:00 21.8 10 Sur 29 Sudoeste 0 -- -- 45
2020-09-14 13:00:00 22.9 13 Sudoeste 25 Sur 0 -- -- 43
2020-09-14 12:00:00 22.3 12 Sur 19 Sur 0 -- -- 47
2020-09-14 11:00:00 18.7 5 Norte 12 Nordeste 0 -- -- 59
2020-09-14 10:00:00 16.3 0 Calma 3 Sudoeste 0 -- -- 64
2020-09-14 09:00:00 12.2 0 Calma 6 Sudoeste 0 -- -- 74
2020-09-14 08:00:00 11.9 2 Sudeste 5 Sudoeste 0 -- -- 72
2020-09-14 07:00:00 12.1 0 Calma 4 Sudoeste 0 -- -- 73
2020-09-14 06:00:00 12.3 2 Sur 6 Sudeste 0 -- -- 69
2020-09-14 05:00:00 12.9 3 Sudoeste 8 Sudoeste 0 -- -- 65
2020-09-14 04:00:00 16 3 Norte 28 Sur 0 -- -- 56
2020-09-14 03:00:00 17.3 8 Sur 15 Sur 0 -- -- 52
2020-09-14 02:00:00 14.1 3 Norte 11 Norte 0 -- -- 59
2020-09-14 01:00:00 14.7 4 Este 12 Norte 0 -- -- 57
2020-09-14 00:00:00 14.8 4 Nordeste 14 Sudeste 0 -- -- 57
2020-09-13 23:00:00 19 3 Sudeste 20 Sur 0 -- -- 44
2020-09-13 22:00:00 13.9 3 Sur 8 Sur 0 -- -- 61
2020-09-13 21:00:00 16.9 3 Sudeste 10 Sur 0 -- -- 54
2020-09-13 20:00:00 22.6 8 Sur 22 Sur 0 -- -- 40
2020-09-13 19:00:00 24.4 9 Sur 21 Sur 0 -- -- 36
2020-09-13 18:00:00 24.6 9 Sur 23 Sudoeste 0 -- -- 36
2020-09-13 17:00:00 27.2 13 Sudoeste 24 Sudoeste 0 -- -- 33
2020-09-13 16:00:00 26.9 10 Sur 20 Sudoeste 0 -- -- 34
2020-09-13 15:00:00 25.8 10 Sudoeste 22 Sudoeste 0 -- -- 37
2020-09-13 14:00:00 24.2 12 Sudoeste 26 Sur 0 -- -- 42
2020-09-13 13:00:00 23.3 14 Sur 23 Sur 0 -- -- 43
2020-09-13 12:00:00 24.2 13 Norte 19 Norte 0 -- -- 41
2020-09-13 11:00:00 21.4 5 Norte 9 Norte 0 -- -- 46
2020-09-13 10:00:00 16.4 2 Norte 4 Norte 0 -- -- 53
2020-09-13 09:00:00 7.7 2 Sur 4 Sur 0 -- -- 83
2020-09-13 08:00:00 6.6 0 Calma 4 Sudeste 0 -- -- 81
2020-09-13 07:00:00 7.2 0 Calma 8 Sudeste 0 -- -- 80
2020-09-13 06:00:00 9.3 0 Calma 6 Sudeste 0 -- -- 70
2020-09-13 05:00:00 8.8 0 Calma 8 Sudoeste 0 -- -- 73
2020-09-13 04:00:00 7.8 0 Calma 5 Sudoeste 0 -- -- 75
2020-09-13 03:00:00 7.8 2 Sur 9 Sur 0 -- -- 74
2020-09-13 02:00:00 8.6 0 Calma 4 Sudoeste 0 -- -- 71
2020-09-13 01:00:00 10 2 Sur 5 Sur 0 -- -- 67
2020-09-13 00:00:00 11.4 2 Sur 7 Sur 0 -- -- 62
2020-09-12 23:00:00 12.8 3 Sur 8 Sur 0 -- -- 58
2020-09-12 22:00:00 14.4 0 Calma 6 Sudoeste 0 -- -- 52
2020-09-12 21:00:00 17.6 3 Sur 9 Sur 0 -- -- 45
2020-09-12 20:00:00 24 5 Sur 15 Sudoeste 0 -- -- 33
2020-09-12 19:00:00 26.8 8 Sur 21 Sudoeste 0 -- -- 29
2020-09-12 18:00:00 27.5 10 Sudoeste 24 Sudoeste 0 -- -- 29
2020-09-12 17:00:00 28.2 8 Sur 29 Sudeste 0 -- -- 27
2020-09-12 16:00:00 27.9 9 Sur 26 Sudoeste 0 -- -- 27
2020-09-12 15:00:00 27.5 11 Sudoeste 28 Sur 0 -- -- 27
2020-09-12 14:00:00 26.7 11 Sudoeste 26 Sur 0 -- -- 29
2020-09-12 13:00:00 25.9 12 Sur 23 Sudoeste 0 -- -- 30
2020-09-12 12:00:00 26.3 3 Norte 7 Sur 0 -- -- 30
2020-09-12 11:00:00 21.9 2 Nordeste 4 Nordeste 0 -- -- 41
2020-09-12 10:00:00 16.7 0 Calma 3 Norte 0 -- -- 48
2020-09-12 09:00:00 6.2 3 Sur 4 Norte 0 -- -- 88
2020-09-12 08:00:00 5.3 2 Sur 4 Sur 0 -- -- 90
2020-09-12 07:00:00 5.4 0 Calma 4 Sur 0 -- -- 84
2020-09-12 06:00:00 6.2 0 Calma 4 Sur 0 -- -- 84
2020-09-12 05:00:00 7 3 Sur 4 Sudoeste 0 -- -- 81
2020-09-12 04:00:00 7.7 0 Calma 4 Sur 0 -- -- 75
2020-09-12 03:00:00 8.2 0 Calma 3 Sur 0 -- -- 76
2020-09-12 02:00:00 8.7 0 Calma 3 Sudoeste 0 -- -- 70
2020-09-12 01:00:00 9.9 0 Calma 5 Sudeste 0 -- -- 66
2020-09-12 00:00:00 10.8 3 Sur 6 Sudoeste 0 -- -- 63
2020-09-11 23:00:00 11.8 0 Calma 6 Sudeste 0 -- -- 59
2020-09-11 22:00:00 14.5 3 Sur 10 Sudoeste 0 -- -- 53
2020-09-11 21:00:00 17.4 3 Sur 13 Sur 0 -- -- 49
2020-09-11 20:00:00 22 9 Sur 21 Sudoeste 0 -- -- 37
2020-09-11 19:00:00 25.1 11 Sur 22 Sur 0 -- -- 32
2020-09-11 18:00:00 27.7 10 Sudoeste 24 Sur 0 -- -- 29
2020-09-11 17:00:00 25.3 11 Sur 25 Sur 0 -- -- 33
2020-09-11 16:00:00 26.5 13 Sur 31 Sur 0 -- -- 30
2020-09-11 15:00:00 25.8 15 Sur 28 Sur 0 -- -- 32
2020-09-11 14:00:00 25.3 14 Sur 23 Sudoeste 0 -- -- 32
2020-09-11 13:00:00 24.4 13 Sur 23 Sudoeste 0 -- -- 34
2020-09-11 12:00:00 24.8 6 Sudoeste 15 Sur 0 -- -- 35
2020-09-11 11:00:00 20.9 0 Calma 4 Norte 0 -- -- 43
2020-09-11 10:00:00 16.2 0 Calma 4 Sudoeste 0 -- -- 54
2020-09-11 09:00:00 4.7 0 Calma 3 Sur 0 -- -- 92
2020-09-11 08:00:00 3.6 0 Calma 4 Sur 0 -- -- 92
2020-09-11 07:00:00 4 0 Calma 3 Sudoeste 0 -- -- 89
2020-09-11 06:00:00 4.3 0 Calma 5 Sudoeste 0 -- -- 90
2020-09-11 05:00:00 4.9 3 Sudeste 6 Sur 0 -- -- 83
2020-09-11 04:00:00 5.7 0 Calma 4 Sudoeste 0 -- -- 80
2020-09-11 03:00:00 6.4 0 Calma 4 Sur 0 -- -- 79
2020-09-11 02:00:00 7.3 2 Sudoeste 3 Sudoeste 0 -- -- 74
2020-09-11 01:00:00 8.5 2 Sur 5 Sur 0 -- -- 69
2020-09-11 00:00:00 9.8 3 Sur 4 Sudeste 0 -- -- 65
2020-09-10 23:00:00 11.1 3 Sur 10 Sur 0 -- -- 60
2020-09-10 22:00:00 13.7 6 Sur 12 Sudoeste 0 -- -- 52
2020-09-10 21:00:00 16.2 9 Sudoeste 17 Nordeste 0 -- -- 46
2020-09-10 20:00:00 22.2 6 Nordeste 14 Este 0 -- -- 31
2020-09-10 19:00:00 25.1 11 Sudoeste 23 Sudoeste 0 -- -- 33
2020-09-10 18:00:00 26.5 10 Sur 21 Sudoeste 0 -- -- 32
2020-09-10 17:00:00 26.1 13 Sudoeste 23 Sudoeste 0 -- -- 32
2020-09-10 16:00:00 25.6 10 Sudoeste 24 Sur 0 -- -- 32
2020-09-10 15:00:00 25.1 14 Sur 24 Sur 0 -- -- 33
2020-09-10 14:00:00 23.9 15 Sur 28 Sudoeste 0 -- -- 37
2020-09-10 13:00:00 23.4 14 Sur 25 Sur 0 -- -- 37
2020-09-10 12:00:00 23.5 14 Norte 22 Norte 0 -- -- 32
2020-09-10 11:00:00 22.8 0 Calma 4 Norte 0 -- -- 40
2020-09-10 10:00:00 16.1 0 Calma 3 Nordeste 0 -- -- 51
2020-09-10 09:00:00 4.2 2 Sur 4 Sur 0 -- -- 87
2020-09-10 08:00:00 3 0 Calma 4 Sudoeste 0 -- -- 89
2020-09-10 07:00:00 3.2 0 Calma 4 Sudoeste 0 -- -- 87
2020-09-10 06:00:00 3.8 2 Sur 6 Sudoeste 0 -- -- 85
2020-09-10 05:00:00 4.2 0 Calma 4 Sudoeste 0 -- -- 81
2020-09-10 04:00:00 4.7 0 Calma 4 Sudoeste 0 -- -- 79
2020-09-10 03:00:00 5.7 3 Sur 6 Sudoeste 0 -- -- 74
2020-09-10 02:00:00 6.3 0 Calma 5 Sur 0 -- -- 73
2020-09-10 01:00:00 8 0 Calma 4 Sudeste 0 -- -- 64
2020-09-10 00:00:00 8.9 2 Sur 5 Sudoeste 0 -- -- 61
2020-09-09 23:00:00 10.1 6 Sur 13 Sur 0 -- -- 59
2020-09-09 22:00:00 11.9 5 Sur 12 Sudoeste 0 -- -- 58
2020-09-09 21:00:00 15.3 6 Sudoeste 12 Sur 0 -- -- 51
2020-09-09 20:00:00 19.9 6 Sur 22 Sudeste 0 -- -- 40
2020-09-09 19:00:00 23.8 13 Sur 28 Sudoeste 0 -- -- 33
2020-09-09 18:00:00 24.2 14 Sur 26 Sudoeste 0 -- -- 32
2020-09-09 17:00:00 23.5 14 Sur 28 Sudoeste 0 -- -- 34
2020-09-09 16:00:00 24.2 15 Sur 27 Sur 0 -- -- 33
2020-09-09 15:00:00 23.4 10 Sudoeste 23 Sudoeste 0 -- -- 33
2020-09-09 14:00:00 22.4 13 Sur 21 Sur 0 -- -- 37
2020-09-09 13:00:00 21.5 12 Sudoeste 22 Sudoeste 0 -- -- 39
2020-09-09 12:00:00 21.1 10 Sur 20 Sudoeste 0 -- -- 39
2020-09-09 11:00:00 18.5 2 Nordeste 5 Nordeste 0 -- -- 46
2020-09-09 10:00:00 11.7 2 Nordeste 6 Sudeste 0 -- -- 65
2020-09-09 09:00:00 2.3 4 Sur 6 Sudeste 0 -- -- 98
2020-09-09 08:00:00 1 0 Calma 5 Sudoeste 0 -- -- 98
2020-09-09 07:00:00 1.3 0 Calma 4 Sur 0 -- -- 97
2020-09-09 06:00:00 1.3 0 Calma 4 Sudoeste 0 -- -- 95
2020-09-09 05:00:00 1.7 2 Sur 4 Sudoeste 0 -- -- 95
2020-09-09 04:00:00 2.2 2 Sudoeste 4 Sudeste 0 -- -- 92
2020-09-09 03:00:00 2.8 0 Calma 5 Sudeste 0 -- -- 86
2020-09-09 02:00:00 3.5 3 Sur 5 Sudoeste 0 -- -- 85
2020-09-09 01:00:00 4.1 3 Sur 5 Sur 0 -- -- 81
2020-09-09 00:00:00 5.8 2 Sur 5 Sur 0 -- -- 71
2020-09-08 23:00:00 6.9 0 Calma 6 Sudoeste 0 -- -- 66
2020-09-08 22:00:00 8.7 4 Sur 9 Sudoeste 0 -- -- 61
2020-09-08 21:00:00 11.9 5 Sudoeste 9 Sudoeste 0 -- -- 54
2020-09-08 20:00:00 17.7 4 Sur 19 Oeste 0 -- -- 39
2020-09-08 19:00:00 21.8 9 Sudoeste 23 Sur 0 -- -- 31
2020-09-08 18:00:00 22.2 13 Sudoeste 24 Sur 0 -- -- 34
2020-09-08 17:00:00 22 13 Sudoeste 25 Sur 0 -- -- 36
2020-09-08 16:00:00 21.5 13 Sur 27 Sudoeste 0 -- -- 41
2020-09-08 15:00:00 20.2 13 Sudoeste 26 Sudoeste 0 -- -- 45
2020-09-08 14:00:00 19.4 9 Sur 20 Sudoeste 0 -- -- 49
2020-09-08 13:00:00 17.7 12 Sur 22 Sur 0 -- -- 53
2020-09-08 12:00:00 17.2 10 Sur 18 Sur 0 -- -- 53
2020-09-08 11:00:00 15.6 2 Nordeste 6 Nordeste 0 -- -- 47
2020-09-08 10:00:00 10.7 0 Calma 6 Sudeste 0 -- -- 59
2020-09-08 09:00:00 -0.1 0 Calma 4 Sudoeste 0 -- -- 96
2020-09-08 08:00:00 -0.7 0 Calma 5 Sur 0 -- -- 96
2020-09-08 07:00:00 0 0 Calma 4 Sudoeste 0 -- -- 92
2020-09-08 06:00:00 0.5 2 Sur 5 Sudoeste 0 -- -- 93
2020-09-08 05:00:00 1.4 0 Calma 6 Sudoeste 0 -- -- 88
2020-09-08 04:00:00 2.5 4 Sur 6 Sur 0 -- -- 86
2020-09-08 03:00:00 3.3 2 Sur 5 Sudoeste 0 -- -- 84
2020-09-08 02:00:00 4.1 3 Sur 5 Sur 0 -- -- 79
2020-09-08 01:00:00 5.7 0 Calma 5 Sudeste 0 -- -- 74
2020-09-08 00:00:00 7.2 3 Sur 9 Sudeste 0 -- -- 68
2020-09-07 23:00:00 9.1 2 Sudeste 8 Norte 0 -- -- 60
2020-09-07 22:00:00 12 5 Norte 20 Norte 0 -- -- 49
2020-09-07 21:00:00 15.1 12 Norte 24 Norte 0 -- -- 42
2020-09-07 20:00:00 18.2 17 Norte 26 Norte 0 -- -- 35
2020-09-07 19:00:00 21.8 19 Norte 25 Norte 0 -- -- 25
2020-09-07 18:00:00 23.6 14 Nordeste 21 Nordeste 0 -- -- 23
2020-09-07 17:00:00 24.9 7 Nordeste 22 Norte 0 -- -- 23
2020-09-07 16:00:00 23.7 12 Norte 24 Norte 0 -- -- 22
2020-09-07 15:00:00 22.5 10 Nordeste 23 Nordeste 0 -- -- 29
2020-09-07 14:00:00 21.7 11 Nordeste 29 Nordeste 0 -- -- 35
2020-09-07 13:00:00 20.7 13 Nordeste 23 Norte 0 -- -- 35
2020-09-07 12:00:00 19.9 13 Norte 25 Norte 0 -- -- 34
2020-09-07 11:00:00 19.5 18 Norte 23 Norte 0 -- -- 29
2020-09-07 10:00:00 16.3 9 Norte 14 Nordeste 0 -- -- 48
2020-09-07 09:00:00 7.3 3 Sudeste 4 Sur 0 -- -- 89
2020-09-07 08:00:00 6 2 Sur 6 Sudeste 0 -- -- 92
2020-09-07 07:00:00 6 0 Calma 3 Este 0 -- -- 90
2020-09-07 06:00:00 6.4 2 Sur 5 Sudoeste 0 -- -- 91
2020-09-07 05:00:00 7.4 3 Sur 4 Sur 0 -- -- 89
2020-09-07 04:00:00 7.5 0 Calma 4 Sudoeste 0 -- -- 88
2020-09-07 03:00:00 8.1 0 Calma 5 Sur 0 -- -- 85
2020-09-07 02:00:00 9.7 0 Calma 4 Sudeste 0 -- -- 76
2020-09-07 01:00:00 10.9 0 Calma 6 Este 0 -- -- 73
2020-09-07 00:00:00 11.8 5 Sudoeste 8 Sudoeste 0 -- -- 70
2020-09-06 23:00:00 14 0 Calma 8 Sudeste 0 -- -- 63
2020-09-06 22:00:00 15.9 5 Nordeste 9 Nordeste 0 -- -- 57
2020-09-06 21:00:00 18.5 0 Calma 21 Norte 0 -- -- 49
2020-09-06 20:00:00 23.4 17 Norte 24 Nordeste 0 -- -- 37
2020-09-06 19:00:00 24.4 13 Norte 19 Norte 0 -- -- 35
2020-09-06 18:00:00 26.1 3 Nordeste 22 Sudoeste 0 -- -- 30
2020-09-06 17:00:00 27.9 10 Sur 30 Sur 0 -- -- 28
2020-09-06 16:00:00 27.8 11 Sur 27 Sur 0 -- -- 28
2020-09-06 15:00:00 28.2 14 Sur 28 Sudoeste 0 -- -- 29
2020-09-06 14:00:00 26.8 15 Sur 27 Sur 0 -- -- 32
2020-09-06 13:00:00 25.8 13 Sur 26 Sudoeste 0 -- -- 37
2020-09-06 12:00:00 25.6 5 Norte 12 Norte 0 -- -- 39
2020-09-06 11:00:00 22.4 3 Nordeste 5 Norte 0 -- -- 46
2020-09-06 10:00:00 16.7 0 Calma 4 Este 0 -- -- 56
2020-09-06 09:00:00 6.8 0 Calma 5 Sur 0 -- -- 88
2020-09-06 08:00:00 5.6 0 Calma 7 Sudeste 0 -- -- 86
2020-09-06 07:00:00 6.3 2 Sur 4 Sudeste 0 -- -- 85
2020-09-06 06:00:00 6.6 3 Sur 5 Sudeste 0 -- -- 79
2020-09-06 05:00:00 7.5 0 Calma 5 Nordeste 0 -- -- 73
2020-09-06 04:00:00 7.4 0 Calma 9 Sudeste 0 -- -- 74
2020-09-06 03:00:00 8.4 3 Sur 5 Sur 0 -- -- 71
2020-09-06 02:00:00 9.6 2 Sur 5 Sudeste 0 -- -- 65
2020-09-06 01:00:00 10.6 3 Norte 10 Sur 0 -- -- 64
2020-09-06 00:00:00 11.4 3 Sur 7 Sur 0 -- -- 60
2020-09-05 23:00:00 13.4 4 Sur 6 Sur 0 -- -- 53
2020-09-05 22:00:00 15 0 Calma 7 Sudeste 0 -- -- 50
2020-09-05 21:00:00 18.6 6 Sur 13 Sur 0 -- -- 43
2020-09-05 20:00:00 24.4 7 Sur 17 Sur 0 -- -- 32
2020-09-05 19:00:00 28 10 Sur 23 Sudoeste 0 -- -- 28
2020-09-05 18:00:00 28.6 14 Sudoeste 23 Sudoeste 0 -- -- 28
2020-09-05 17:00:00 28.5 13 Sudoeste 23 Sur 0 -- -- 28
2020-09-05 16:00:00 28.2 13 Sudoeste 32 Sur 0 -- -- 29
2020-09-05 15:00:00 27.5 15 Sudoeste 26 Sudoeste 0 -- -- 29
2020-09-05 14:00:00 26.5 14 Sur 28 Sur 0 -- -- 32
2020-09-05 13:00:00 25.4 15 Sur 24 Sur 0 -- -- 35
2020-09-05 12:00:00 27.1 7 Sur 16 Sudoeste 0 -- -- 31
2020-09-05 11:00:00 22.7 2 Nordeste 4 Nordeste 0 -- -- 36
2020-09-05 10:00:00 17.4 0 Calma 5 Sudeste 0 -- -- 53
2020-09-05 09:00:00 6.2 2 Sur 4 Sudoeste 0 -- -- 89
2020-09-05 08:00:00 5.1 0 Calma 4 Sur 0 -- -- 89
2020-09-05 07:00:00 5.9 2 Sur 4 Sudeste 0 -- -- 87
2020-09-05 06:00:00 5.9 0 Calma 5 Sur 0 -- -- 86
2020-09-05 05:00:00 6.7 0 Calma 6 Sudoeste 0 -- -- 82
2020-09-05 04:00:00 7.4 2 Sudoeste 6 Sudoeste 0 -- -- 77
2020-09-05 03:00:00 8.1 3 Sur 4 Sudoeste 0 -- -- 75
2020-09-05 02:00:00 9.3 2 Sur 4 Sudoeste 0 -- -- 72
2020-09-05 01:00:00 10.3 2 Sudoeste 5 Sur 0 -- -- 67
2020-09-05 00:00:00 11.6 3 Sur 6 Sur 0 -- -- 62
2020-09-04 23:00:00 13.6 4 Sur 7 Sur 0 -- -- 55
2020-09-04 22:00:00 16.8 3 Norte 13 Sur 0 -- -- 47
2020-09-04 21:00:00 20.9 7 Sur 17 Sur 0 -- -- 37
2020-09-04 20:00:00 24 11 Sur 24 Sur 0 -- -- 32
2020-09-04 19:00:00 27.1 13 Sur 26 Sur 0 -- -- 29
2020-09-04 18:00:00 27.4 16 Sur 28 Sur 0 -- -- 29
2020-09-04 17:00:00 27.8 13 Sudoeste 26 Sur 0 -- -- 30
2020-09-04 16:00:00 27.2 14 Sudoeste 26 Sudoeste 0 -- -- 32
2020-09-04 15:00:00 27.1 12 Sudoeste 26 Sur 0 -- -- 31
2020-09-04 14:00:00 26 10 Sur 24 Sudoeste 0 -- -- 34
2020-09-04 13:00:00 25.3 11 Sudoeste 22 Sudoeste 0 -- -- 36
2020-09-04 12:00:00 26.1 4 Oeste 15 Sur 0 -- -- 33
2020-09-04 11:00:00 22.8 2 Nordeste 4 Nordeste 0 -- -- 34
2020-09-04 10:00:00 16.9 0 Calma 3 Sudeste 0 -- -- 52
2020-09-04 09:00:00 5.2 0 Calma 5 Sur 0 -- -- 88
2020-09-04 08:00:00 3.7 0 Calma 6 Sudoeste 0 -- -- 87
2020-09-04 07:00:00 4.3 3 Sur 8 Sudeste 0 -- -- 86
2020-09-04 06:00:00 4.9 3 Sur 5 Sudoeste 0 -- -- 83
2020-09-04 05:00:00 5 0 Calma 4 Sudoeste 0 -- -- 80
2020-09-04 04:00:00 5.8 2 Sur 4 Sur 0 -- -- 78
2020-09-04 03:00:00 6.6 0 Calma 4 Sur 0 -- -- 75
2020-09-04 02:00:00 7.8 2 Sur 3 Sudoeste 0 -- -- 71
2020-09-04 01:00:00 9.5 2 Sur 4 Sudeste 0 -- -- 64
2020-09-04 00:00:00 10.5 0 Calma 6 Sudeste 0 -- -- 60
2020-09-03 23:00:00 12.9 4 Sur 6 Sur 0 -- -- 53
2020-09-03 22:00:00 16.1 3 Norte 12 Sur 0 -- -- 47
2020-09-03 21:00:00 20.6 7 Sur 19 Sur 0 -- -- 37
2020-09-03 20:00:00 23.6 9 Sur 25 Sur 0 -- -- 32
2020-09-03 19:00:00 26.8 12 Sur 26 Sudoeste 0 -- -- 28
2020-09-03 18:00:00 27.3 14 Sur 28 Sur 0 -- -- 27
2020-09-03 17:00:00 27 15 Sur 31 Sur 0 -- -- 27
2020-09-03 16:00:00 26.5 14 Sur 30 Sudoeste 0 -- -- 27
2020-09-03 15:00:00 26 14 Sur 32 Sudoeste 0 -- -- 28
2020-09-03 14:00:00 24.6 17 Sur 29 Sur 0 -- -- 29
2020-09-03 13:00:00 23.9 15 Sur 26 Sudoeste 0 -- -- 31
2020-09-03 12:00:00 24.2 11 Sur 20 Sur 0 -- -- 30
2020-09-03 11:00:00 21.8 3 Nordeste 4 Nordeste 0 -- -- 34
2020-09-03 10:00:00 16.1 0 Calma 4 Noroeste 0 -- -- 52
2020-09-03 09:00:00 4.4 3 Sudeste 4 Sudoeste 0 -- -- 89
2020-09-03 08:00:00 2.5 3 Sur 4 Sudoeste 0 -- -- 90
2020-09-03 07:00:00 3 0 Calma 3 Sudoeste 0 -- -- 91
2020-09-03 06:00:00 3.4 0 Calma 3 Sur 0 -- -- 86
2020-09-03 05:00:00 4.2 2 Sur 4 Sur 0 -- -- 83
2020-09-03 04:00:00 4.5 0 Calma 4 Sur 0 -- -- 80
2020-09-03 03:00:00 4.7 2 Sur 4 Sur 0 -- -- 78
2020-09-03 02:00:00 6.2 0 Calma 4 Sur 0 -- -- 71
2020-09-03 01:00:00 7.8 2 Sur 6 Sudoeste 0 -- -- 65
2020-09-03 00:00:00 8.9 3 Sur 5 Sur 0 -- -- 59
2020-09-02 23:00:00 10 3 Sur 8 Sur 0 -- -- 55
2020-09-02 22:00:00 12.5 6 Sur 12 Sur 0 -- -- 50
2020-09-02 21:00:00 15.8 5 Sur 11 Sudoeste 0 -- -- 47
2020-09-02 20:00:00 21.9 6 Sudoeste 20 Sur 0 -- -- 33
2020-09-02 19:00:00 25 10 Sur 24 Sur 0 -- -- 28
2020-09-02 18:00:00 25.6 13 Sur 27 Sur 0 -- -- 27
2020-09-02 17:00:00 25.8 14 Sur 26 Sur 0 -- -- 27
2020-09-02 16:00:00 25.4 13 Sudoeste 23 Sudoeste 0 -- -- 27
2020-09-02 15:00:00 24.8 11 Sur 22 Nordeste 0 -- -- 27
2020-09-02 14:00:00 24.1 7 Noroeste 22 Nordeste 0 -- -- 25
2020-09-02 13:00:00 22.8 9 Este 24 Nordeste 0 -- -- 27
2020-09-02 12:00:00 21.6 8 Nordeste 16 Norte 0 -- -- 29
2020-09-02 11:00:00 18.9 5 Nordeste 9 Nordeste 0 -- -- 35
2020-09-02 10:00:00 14 0 Calma 5 Sudeste 0 -- -- 43
2020-09-02 09:00:00 2.6 2 Sur 5 Sudeste 0 -- -- 81
2020-09-02 08:00:00 1.3 0 Calma 3 Sur 0 -- -- 78
2020-09-02 07:00:00 1.6 0 Calma 3 Sur 0 -- -- 77
2020-09-02 06:00:00 2.2 3 Sur 4 Sur 0 -- -- 72
2020-09-02 05:00:00 2.6 3 Sur 4 Sudoeste 0 -- -- 71
2020-09-02 04:00:00 2.9 0 Calma 4 Sudoeste 0 -- -- 67
2020-09-02 03:00:00 3.6 0 Calma 6 Sur 0 -- -- 65
2020-09-02 02:00:00 4.3 3 Sur 5 Sur 0 -- -- 63
2020-09-02 01:00:00 5.5 0 Calma 4 Sudeste 0 -- -- 57
2020-09-02 00:00:00 6.9 3 Sur 5 Sur 0 -- -- 53
2020-09-01 23:00:00 8.3 4 Sur 9 Sur 0 -- -- 52
2020-09-01 22:00:00 10.5 5 Sur 10 Sudoeste 0 -- -- 47
2020-09-01 21:00:00 15.6 7 Sudoeste 11 Sudeste 0 -- -- 41
2020-09-01 20:00:00 21 6 Sudoeste 19 Sur 0 -- -- 30
2020-09-01 19:00:00 21.2 12 Sur 23 Sur 0 -- -- 29
2020-09-01 18:00:00 23.4 14 Sur 30 Sur 0 -- -- 26
2020-09-01 17:00:00 23.9 16 Sur 28 Sudoeste 0 -- -- 26
2020-09-01 16:00:00 21.8 15 Sur 31 Sur 0 -- -- 28
2020-09-01 15:00:00 22.6 14 Sur 26 Sudoeste 0 -- -- 27
2020-09-01 14:00:00 21.8 15 Sur 27 Sudoeste 0 -- -- 28
2020-09-01 13:00:00 20.5 13 Sur 26 Sudoeste 0 -- -- 32
2020-09-01 12:00:00 21.6 10 Sur 18 Sudoeste 0 -- -- 29
2020-09-01 11:00:00 17.3 3 Norte 18 Noroeste 0 -- -- 42
2020-09-01 10:00:00 12.2 4 Sur 10 Sur 0 -- -- 56
2020-09-01 09:00:00 7.7 0 Calma 10 Sudeste 0 -- -- 68
2020-09-01 08:00:00 6.6 3 Norte 9 Sur 0 -- -- 70
2020-09-01 07:00:00 5.9 4 Sudeste 9 Sudoeste 0 -- -- 70
2020-09-01 06:00:00 5.7 2 Sur 8 Sudoeste 0 -- -- 71
2020-09-01 05:00:00 5.7 3 Sur 11 Sudoeste 0 -- -- 69
2020-09-01 04:00:00 5.4 4 Sur 8 Sudeste 0 -- -- 68
2020-09-01 03:00:00 4.5 2 Sur 5 Sudoeste 0 -- -- 72
2020-09-01 02:00:00 3.8 2 Sudoeste 5 Sudoeste 0 -- -- 72
2020-09-01 01:00:00 4.9 0 Calma 4 Sudeste 0 -- -- 65
2020-09-01 00:00:00 5.8 0 Calma 9 Sur 0 -- -- 61
2020-08-31 23:00:00 7.1 0 Calma 7 Sudoeste 0 -- -- 59
2020-08-31 22:00:00 9.2 4 Sur 14 Sudoeste 0 -- -- 56
2020-08-31 21:00:00 13.5 7 Sur 13 Sudoeste 0 -- -- 47
2020-08-31 20:00:00 18.8 7 Sur 22 Sudoeste 0 -- -- 37
2020-08-31 19:00:00 20.8 13 Sur 26 Sudoeste 0 -- -- 34
2020-08-31 18:00:00 20.9 14 Sudoeste 24 Sudoeste 0 -- -- 33
2020-08-31 17:00:00 20.7 13 Sudoeste 27 Sur 0 -- -- 33
2020-08-31 16:00:00 18.7 15 Sur 27 Sudoeste 0 -- -- 36
2020-08-31 15:00:00 19.1 13 Sur 26 Sudoeste 0 -- -- 35
2020-08-31 14:00:00 17.5 14 Sur 27 Sudoeste 0 -- -- 37
2020-08-31 13:00:00 17.8 15 Sur 25 Sur 0 -- -- 36
2020-08-31 12:00:00 17 14 Sur 23 Sudoeste 0 -- -- 39
2020-08-31 11:00:00 15.9 11 Sur 18 Sur 0 -- -- 41
2020-08-31 10:00:00 8.9 5 Nordeste 9 Norte 0 -- -- 63
2020-08-31 09:00:00 -1 2 Sur 5 Sudeste 0 -- -- 99
2020-08-31 08:00:00 -3.1 0 Calma 4 Sudoeste 0 -- -- 96
2020-08-31 07:00:00 -2.3 2 Sur 5 Sudeste 0 -- -- 95
2020-08-31 06:00:00 -2.2 0 Calma 5 Sudeste 0 -- -- 94
2020-08-31 05:00:00 -1.3 0 Calma 4 Sudoeste 0 -- -- 92
2020-08-31 04:00:00 -0.7 0 Calma 6 Sudoeste 0 -- -- 92
2020-08-31 03:00:00 -0.1 0 Calma 5 Sudoeste 0 -- -- 91
2020-08-31 02:00:00 0.8 0 Calma 4 Sudoeste 0 -- -- 81
2020-08-31 01:00:00 1.9 0 Calma 5 Sudoeste 0 -- -- 81
2020-08-31 00:00:00 3.5 0 Calma 8 Sudeste 0 -- -- 75
2020-08-30 23:00:00 4.6 3 Sudoeste 8 Sudeste 0 -- -- 70
2020-08-30 22:00:00 6.4 3 Sur 6 Sudeste 0 -- -- 64
2020-08-30 21:00:00 11 4 Nordeste 22 Nordeste 0 -- -- 49
2020-08-30 20:00:00 14.2 13 Nordeste 22 Nordeste 0 -- -- 41
2020-08-30 19:00:00 15.5 15 Nordeste 26 Este 0 -- -- 39
2020-08-30 18:00:00 18.2 12 Nordeste 26 Nordeste 0 -- -- 35
2020-08-30 17:00:00 17.2 5 Sur 18 Sudoeste 0 -- -- 37
2020-08-30 16:00:00 18.9 10 Sudoeste 20 Norte 0 -- -- 35
2020-08-30 15:00:00 18 7 Este 28 Nordeste 0 -- -- 35
2020-08-30 14:00:00 17.5 5 Sur 22 Nordeste 0 -- -- 38
2020-08-30 13:00:00 16 7 Sur 19 Nordeste 0 -- -- 43
2020-08-30 12:00:00 14.7 7 Norte 18 Este 0 -- -- 49
2020-08-30 11:00:00 12.2 9 Nordeste 18 Norte 0 -- -- 56
2020-08-30 10:00:00 8.8 5 Nordeste 11 Norte 0 -- -- 73
2020-08-30 09:00:00 1.1 0 Calma 4 Sur 0 -- -- 99
2020-08-30 08:00:00 -0.5 0 Calma 4 Sudeste 0 -- -- 99
2020-08-30 07:00:00 0.8 0 Calma 3 Sur 0 -- -- 98
2020-08-30 06:00:00 1 0 Calma 4 Sudoeste 0 -- -- 96
2020-08-30 05:00:00 2.6 0 Calma 10 Sudeste 0 -- -- 92
2020-08-30 04:00:00 4.2 2 Sudeste 8 Nordeste 0 -- -- 89
2020-08-30 03:00:00 5.4 6 Nordeste 10 Norte 0 -- -- 88
2020-08-30 02:00:00 6.1 5 Norte 13 Norte 0 -- -- 82
2020-08-30 01:00:00 7.9 6 Norte 24 Norte 0 -- -- 73
2020-08-30 00:00:00 10.2 13 Norte 29 Norte 0 -- -- 63
2020-08-29 23:00:00 9.3 12 Norte 15 Norte 0 -- -- 66
2020-08-29 22:00:00 8.6 6 Norte 17 Norte 0 -- -- 63
2020-08-29 21:00:00 11.7 12 Norte 40 Norte 0 -- -- 54
2020-08-29 20:00:00 14.9 23 Norte 36 Norte 0 -- -- 44
2020-08-29 19:00:00 15 22 Norte 40 Norte 0 -- -- 42
2020-08-29 18:00:00 15.8 23 Norte 35 Nordeste 0 -- -- 42
2020-08-29 17:00:00 16.4 24 Norte 39 Norte 0 -- -- 39
2020-08-29 16:00:00 15.8 23 Norte 36 Norte 0 -- -- 42
2020-08-29 15:00:00 16.7 25 Norte 37 Nordeste 0 -- -- 41
2020-08-29 14:00:00 15.9 25 Norte 40 Norte 0 -- -- 45
2020-08-29 13:00:00 14.2 24 Norte 37 Norte 0 -- -- 50
2020-08-29 12:00:00 12.6 26 Norte 37 Norte 0 -- -- 54
2020-08-29 11:00:00 10.9 23 Norte 37 Nordeste 0 -- -- 61
2020-08-29 10:00:00 10.2 21 Nordeste 29 Nordeste 0 -- -- 63
2020-08-29 09:00:00 7.3 12 Norte 24 Nordeste 0 -- -- 82
2020-08-29 08:00:00 6 12 Norte 19 Nordeste 0 -- -- 86
2020-08-29 07:00:00 7.3 16 Norte 21 Norte 0 -- -- 81
2020-08-29 06:00:00 6.3 9 Nordeste 19 Norte 0 -- -- 82
2020-08-29 05:00:00 7.6 9 Norte 17 Noroeste 0 -- -- 76
2020-08-29 04:00:00 7.6 8 Nordeste 19 Norte 0 -- -- 72
2020-08-29 03:00:00 9 10 Norte 21 Noroeste 0 -- -- 64
2020-08-29 02:00:00 10.9 12 Norte 27 Norte 0 -- -- 58
2020-08-29 01:00:00 12.1 10 Norte 25 Norte 0 -- -- 55
2020-08-29 00:00:00 13.7 11 Norte 23 Noroeste 0 -- -- 49
2020-08-28 23:00:00 14.4 10 Norte 24 Norte 0 -- -- 40
2020-08-28 22:00:00 14.3 8 Norte 15 Noroeste 0 -- -- 33
2020-08-28 21:00:00 17.5 6 Noroeste 26 Norte 0 -- -- 24
2020-08-28 20:00:00 21.5 11 Norte 32 Norte 0 -- -- 21
2020-08-28 19:00:00 23.5 21 Norte 39 Norte 0 -- -- 23
2020-08-28 18:00:00 24.9 16 Norte 34 Norte 0 -- -- 25
2020-08-28 17:00:00 26.7 12 Norte 32 Norte 0 -- -- 24
2020-08-28 16:00:00 27.6 11 Noroeste 23 Oeste 0 -- -- 26
2020-08-28 15:00:00 25.1 7 Oeste 26 Sudeste 0 -- -- 41
2020-08-28 14:00:00 25.9 6 Sur 20 Noroeste 0 -- -- 38
2020-08-28 13:00:00 24.8 8 Norte 22 Norte 0 -- -- 41
2020-08-28 12:00:00 23.1 14 Norte 24 Norte 0 -- -- 49
2020-08-28 11:00:00 22.4 8 Noroeste 21 Oeste 0 -- -- 45
2020-08-28 10:00:00 19.1 10 Norte 17 Nordeste 0 -- -- 62
2020-08-28 09:00:00 15.9 9 Norte 22 Norte 0 -- -- 75
2020-08-28 08:00:00 14.7 9 Este 20 Sudeste 0 -- -- 82
2020-08-28 07:00:00 14.5 10 Nordeste 19 Este 0 -- -- 77
2020-08-28 06:00:00 13.4 5 Nordeste 14 Nordeste 0 -- -- 76
2020-08-28 05:00:00 12.4 3 Norte 7 Norte 0 -- -- 78
2020-08-28 04:00:00 14.3 2 Nordeste 8 Norte 0 -- -- 67
2020-08-28 03:00:00 15.1 0 Calma 12 Sudeste 0 -- -- 65
2020-08-28 02:00:00 16 3 Sudeste 8 Sudeste 0 -- -- 59
2020-08-28 01:00:00 16.5 3 Sudeste 10 Nordeste 0 -- -- 55
2020-08-28 00:00:00 19.4 4 Nordeste 8 Nordeste 0 -- -- 47